Current Weather

Snohomish County (Paine Fld)

Everett, Washington (KPAE)

Report from: Tuesday, February 27, 2024 2:06 AM PST
Current time: Tuesday, February 27, 2024 2:25 AM PST

Nearby weather – Weather history – Daily summaries
Weather forecast

Present weatherLight snow, mist
Temperature0.0°C (32.0°F)
Dew point-2.2°C (28.0°F)
Winds Calm
Visibility6 mi. (9.7 km)
Clouds Ceiling: Broken clouds 4,800 ft. (1,463 m)
Overcast 6,000 ft. (1,829 m)
Altimeter29.96 in.Hg (1015 mB)
PrecipitiationTrace
Relative humidity85 %
Density altitude-1,798 ft. (-548 m)
Remarks Fully automated report
Automated weather observing station with precipitation discriminator
Flight conditions Visual Meteorological Conditions
Raw dataKPAE 271006Z AUTO 00000KT 6SM -SN BR BKN048 OVC060 00/M02 A2996 RMK AO2 P0000 T00001022
An error has occurred. This application may no longer respond until reloaded. Reload 🗙